Time;durP1;ratioP1;P1;durP2;ratioP2;P2;SDS_P1;SDS_P2;PMS_P1;PMS_P2;Temp;Humidity;BMP_temperature;BMP_pressure;BME280_temperature;BME280_humidity;BME280_pressure;Samples;Min_cycle;Max_cycle;Signal;HPM_P1;HPM_P2
2022/06/01 00:01:22;;;;;;;3.20;2.30;;;;;;;;;;5011354;28;20056;-68
2022/06/01 00:03:49;;;;;;;7.32;3.13;;;;;;;;;;5013084;28;20060;-66
2022/06/01 00:06:16;;;;;;;4.43;2.92;;;;;;;;;;5012936;28;20050;-66
2022/06/01 00:08:43;;;;;;;4.68;3.35;;;;;;;;;;5012911;28;20054;-67
2022/06/01 00:11:10;;;;;;;5.18;3.25;;;;;;;;;;5018365;28;20060;-68
2022/06/01 00:13:37;;;;;;;5.35;3.50;;;;;;;;;;5013725;28;20108;-66
2022/06/01 00:16:03;;;;;;;4.80;3.00;;;;;;;;;;5011642;28;20050;-68
2022/06/01 00:18:30;;;;;;;4.10;3.17;;;;;;;;;;5012786;28;20053;-66
2022/06/01 00:20:57;;;;;;;3.40;2.97;;;;;;;;;;5012404;28;20104;-66
2022/06/01 00:23:23;;;;;;;4.35;3.42;;;;;;;;;;5012568;28;20050;-69
2022/06/01 00:25:50;;;;;;;3.90;3.50;;;;;;;;;;5012672;28;20053;-66
2022/06/01 00:28:17;;;;;;;3.65;3.00;;;;;;;;;;5012489;28;20132;-67
2022/06/01 00:30:44;;;;;;;6.18;3.45;;;;;;;;;;5012218;28;20054;-67
2022/06/01 00:33:11;;;;;;;2.90;2.70;;;;;;;;;;5012388;28;20046;-66
2022/06/01 00:35:38;;;;;;;3.13;2.83;;;;;;;;;;5010640;28;20118;-66
2022/06/01 00:38:05;;;;;;;4.95;4.07;;;;;;;;;;5012305;28;20050;-66
2022/06/01 00:40:37;;;;;;;;;;;;;;;;;;5012594;28;20103;-66
2022/06/01 00:43:18;;;;;;;5.07;3.25;;;;;;;;;;5012237;28;19928;-69
2022/06/01 00:45:45;;;;;;;6.90;3.30;;;;;;;;;;5012417;28;20054;-67
2022/06/01 00:48:13;;;;;;;5.50;3.22;;;;;;;;;;5012231;28;20049;-66
2022/06/01 00:50:40;;;;;;;5.43;3.58;;;;;;;;;;4995070;28;20324;-66
2022/06/01 00:53:10;;;;;;;6.50;3.47;;;;;;;;;;5011097;28;20081;-67
2022/06/01 00:55:43;;;;;;;3.90;3.33;;;;;;;;;;5012122;28;20054;-66
2022/06/01 00:58:13;;;;;;;6.57;3.40;;;;;;;;;;5011196;28;20444;-67
2022/06/01 01:00:41;;;;;;;6.38;3.20;;;;;;;;;;5010736;28;20053;-66
2022/06/01 01:03:13;;;;;;;4.07;3.05;;;;;;;;;;5011938;28;20049;-66
2022/06/01 01:05:42;;;;;;;4.70;3.25;;;;;;;;;;5011143;28;20444;-67
2022/06/01 01:08:09;;;;;;;3.58;2.95;;;;;;;;;;4994995;28;20050;-66
2022/06/01 01:10:35;;;;;;;4.05;3.13;;;;;;;;;;5010873;28;20405;-71
2022/06/01 01:13:05;;;;;;;4.30;2.92;;;;;;;;;;5011884;28;20053;-66
2022/06/01 01:15:38;;;;;;;5.85;3.60;;;;;;;;;;4994812;28;20057;-66
2022/06/01 01:18:08;;;;;;;4.75;3.05;;;;;;;;;;5011899;28;20562;-68
2022/06/01 01:20:43;;;;;;;3.95;2.95;;;;;;;;;;5010874;28;20406;-67
2022/06/01 01:23:31;;;;;;;4.30;3.30;;;;;;;;;;5010743;28;20050;-67
2022/06/01 01:25:58;;;;;;;4.05;3.50;;;;;;;;;;5010887;28;20508;-66
2022/06/01 01:28:24;;;;;;;4.63;3.70;;;;;;;;;;5011600;28;20049;-66
2022/06/01 01:31:05;;;;;;;5.15;3.30;;;;;;;;;;5011774;28;20108;-66
2022/06/01 01:33:32;;;;;;;6.63;3.08;;;;;;;;;;4995654;28;20050;-67
2022/06/01 01:36:02;;;;;;;5.70;3.38;;;;;;;;;;5011857;28;20137;-66
2022/06/01 01:38:44;;;;;;;4.07;3.42;;;;;;;;;;5010376;28;20042;-66
2022/06/01 01:41:16;;;;;;;6.03;3.10;;;;;;;;;;5010291;28;20054;-66
2022/06/01 01:43:55;;;;;;;5.93;3.35;;;;;;;;;;5011596;28;20092;-66
2022/06/01 01:46:26;;;;;;;3.83;3.30;;;;;;;;;;5011572;28;20053;-66
2022/06/01 01:48:53;;;;;;;5.10;3.42;;;;;;;;;;5015261;28;20104;-67
2022/06/01 01:51:21;;;;;;;7.80;3.50;;;;;;;;;;5015831;28;20421;-67
2022/06/01 01:53:48;;;;;;;4.00;3.20;;;;;;;;;;5015659;28;20050;-69
2022/06/01 01:56:39;;;;;;;5.82;3.60;;;;;;;;;;5015386;28;20049;-67
2022/06/01 01:59:33;;;;;;;4.68;3.53;;;;;;;;;;5015217;28;20054;-69
2022/06/01 02:02:20;;;;;;;8.20;4.00;;;;;;;;;;5013829;28;20081;-67
2022/06/01 02:08:04;;;;;;;5.95;3.92;;;;;;;;;;5013717;28;20042;-68
2022/06/01 02:13:16;;;;;;;9.30;5.10;;;;;;;;;;5000117;28;20046;-67
2022/06/01 02:15:43;;;;;;;5.50;4.07;;;;;;;;;;5014950;28;20050;-67
2022/06/01 02:18:12;;;;;;;4.38;3.97;;;;;;;;;;5013764;28;20045;-67
2022/06/01 02:20:45;;;;;;;4.88;3.65;;;;;;;;;;5014938;28;20045;-67
2022/06/01 02:23:13;;;;;;;4.30;3.60;;;;;;;;;;4997493;28;20061;-67
2022/06/01 02:25:41;;;;;;;6.47;4.05;;;;;;;;;;5014860;28;20417;-67
2022/06/01 02:28:09;;;;;;;6.35;4.20;;;;;;;;;;5014623;28;20041;-67
2022/06/01 02:30:40;;;;;;;7.88;4.20;;;;;;;;;;4997523;28;20424;-69
2022/06/01 02:33:10;;;;;;;6.60;4.00;;;;;;;;;;4997404;28;20056;-67
2022/06/01 02:35:39;;;;;;;5.05;3.90;;;;;;;;;;4997222;28;20046;-67
2022/06/01 02:38:10;;;;;;;6.90;4.35;;;;;;;;;;4997324;28;20046;-67
2022/06/01 02:40:37;;;;;;;4.35;3.75;;;;;;;;;;4997333;28;20050;-66
2022/06/01 02:43:04;;;;;;;5.65;3.78;;;;;;;;;;5014223;28;20060;-67
2022/06/01 02:45:30;;;;;;;5.32;4.18;;;;;;;;;;5014581;28;20054;-66
2022/06/01 02:48:01;;;;;;;3.92;3.25;;;;;;;;;;5013230;28;20046;-67
2022/06/01 02:50:30;;;;;;;5.45;3.42;;;;;;;;;;5014156;28;20060;-66
2022/06/01 02:52:57;;;;;;;4.53;3.50;;;;;;;;;;5014061;28;20046;-69
2022/06/01 02:55:25;;;;;;;5.90;3.47;;;;;;;;;;5014343;28;20103;-67
2022/06/01 02:57:52;;;;;;;6.65;3.72;;;;;;;;;;5013149;28;20097;-69
2022/06/01 03:00:30;;;;;;;4.88;3.67;;;;;;;;;;5013873;28;20456;-66
2022/06/01 03:02:59;;;;;;;8.05;4.20;;;;;;;;;;5012971;28;20057;-67
2022/06/01 03:05:29;;;;;;;6.88;4.53;;;;;;;;;;5014003;28;20080;-67
2022/06/01 03:07:56;;;;;;;4.53;3.50;;;;;;;;;;5014070;28;20049;-67
2022/06/01 03:10:23;;;;;;;5.65;3.70;;;;;;;;;;5013530;28;20053;-67
2022/06/01 03:12:51;;;;;;;5.40;3.70;;;;;;;;;;5013844;28;20100;-67
2022/06/01 03:15:19;;;;;;;5.13;4.25;;;;;;;;;;5013907;28;20444;-69
2022/06/01 03:17:46;;;;;;;5.03;4.05;;;;;;;;;;5013701;28;20046;-68
2022/06/01 03:20:15;;;;;;;4.85;4.22;;;;;;;;;;5012365;28;20497;-67
2022/06/01 03:22:43;;;;;;;4.60;4.00;;;;;;;;;;5012158;28;20050;-66
2022/06/01 03:25:13;;;;;;;5.25;4.15;;;;;;;;;;5012543;28;20051;-68
2022/06/01 03:27:40;;;;;;;4.22;3.83;;;;;;;;;;5049229;22;20450;-67
2022/06/01 03:30:10;;;;;;;4.78;3.92;;;;;;;;;;4999830;28;20111;-69
2022/06/01 03:32:37;;;;;;;4.75;4.25;;;;;;;;;;5016161;28;20508;-69
2022/06/01 03:35:05;;;;;;;6.20;3.88;;;;;;;;;;4983584;28;20080;-69
2022/06/01 03:37:32;;;;;;;7.20;4.38;;;;;;;;;;4995906;28;20081;-69
2022/06/01 03:39:58;;;;;;;4.68;3.95;;;;;;;;;;5012476;28;20061;-68
2022/06/01 03:42:25;;;;;;;9.45;4.88;;;;;;;;;;4996013;28;20050;-69
2022/06/01 03:47:38;;;;;;;7.82;3.80;;;;;;;;;;5012019;28;20050;-68
2022/06/01 03:50:05;;;;;;;4.25;3.85;;;;;;;;;;5013047;28;20062;-69
2022/06/01 03:52:32;;;;;;;6.63;4.57;;;;;;;;;;4995500;28;20056;-69
2022/06/01 03:54:58;;;;;;;4.80;4.20;;;;;;;;;;5011677;28;20508;-68
2022/06/01 03:57:25;;;;;;;4.43;3.90;;;;;;;;;;4995585;28;20046;-69
2022/06/01 03:59:52;;;;;;;6.10;3.95;;;;;;;;;;4999775;28;20417;-69
2022/06/01 04:02:19;;;;;;;4.68;4.03;;;;;;;;;;4975786;28;20050;-69
2022/06/01 04:04:45;;;;;;;5.82;4.20;;;;;;;;;;4992173;28;20054;-69
2022/06/01 04:07:12;;;;;;;4.38;3.97;;;;;;;;;;4976067;28;20464;-69
2022/06/01 04:09:38;;;;;;;5.05;3.90;;;;;;;;;;5003966;28;20050;-69
2022/06/01 04:12:06;;;;;;;6.95;4.03;;;;;;;;;;4993138;28;20406;-69
2022/06/01 04:14:33;;;;;;;5.85;4.55;;;;;;;;;;4993959;28;20497;-70
2022/06/01 04:17:00;;;;;;;7.03;4.88;;;;;;;;;;4992193;28;20054;-70
2022/06/01 04:19:27;;;;;;;6.25;4.30;;;;;;;;;;4975792;28;20065;-71
2022/06/01 04:21:53;;;;;;;4.65;4.25;;;;;;;;;;4975894;28;20061;-69
2022/06/01 04:24:24;;;;;;;5.70;4.57;;;;;;;;;;4995873;28;20046;-70
2022/06/01 04:26:50;;;;;;;7.32;4.15;;;;;;;;;;4991315;28;20054;-70
2022/06/01 04:29:17;;;;;;;7.18;4.32;;;;;;;;;;4959647;28;20054;-72
2022/06/01 04:31:44;;;;;;;5.50;4.10;;;;;;;;;;4959386;28;20046;-69
2022/06/01 04:34:11;;;;;;;7.65;4.30;;;;;;;;;;4976037;28;20058;-70
2022/06/01 04:36:37;;;;;;;7.25;4.25;;;;;;;;;;4975779;28;20050;-70
2022/06/01 04:39:04;;;;;;;3.97;3.65;;;;;;;;;;4992744;28;20421;-70
2022/06/01 04:41:31;;;;;;;6.45;3.55;;;;;;;;;;4959497;28;20053;-70
2022/06/01 04:43:58;;;;;;;5.60;4.55;;;;;;;;;;4959555;28;20228;-70
2022/06/01 04:46:24;;;;;;;4.70;3.97;;;;;;;;;;4992497;28;20051;-70
2022/06/01 04:48:51;;;;;;;5.13;4.28;;;;;;;;;;4975455;28;20055;-70
2022/06/01 04:51:19;;;;;;;4.68;4.20;;;;;;;;;;4975169;28;20054;-70
2022/06/01 04:53:46;;;;;;;7.63;5.22;;;;;;;;;;4992492;28;20472;-69
2022/06/01 04:56:13;;;;;;;5.25;4.00;;;;;;;;;;4992438;28;20108;-70
2022/06/01 04:58:39;;;;;;;5.57;4.20;;;;;;;;;;4975539;28;20448;-70
2022/06/01 05:01:07;;;;;;;8.60;4.43;;;;;;;;;;4992402;28;20519;-70
2022/06/01 05:03:33;;;;;;;5.25;4.25;;;;;;;;;;4943638;28;20544;-70
2022/06/01 05:06:00;;;;;;;6.03;4.22;;;;;;;;;;4992556;28;20051;-70
2022/06/01 05:08:27;;;;;;;3.92;3.63;;;;;;;;;;4977750;28;20050;-70
2022/06/01 05:10:53;;;;;;;7.15;4.20;;;;;;;;;;5001967;28;20046;-70
2022/06/01 05:13:21;;;;;;;4.22;3.83;;;;;;;;;;4983420;28;20050;-70
2022/06/01 05:15:50;;;;;;;5.22;3.90;;;;;;;;;;4985371;28;20054;-70
2022/06/01 05:18:17;;;;;;;5.15;4.00;;;;;;;;;;4987933;28;20050;-70
2022/06/01 05:20:43;;;;;;;5.38;3.58;;;;;;;;;;4994606;28;20053;-70
2022/06/01 05:23:10;;;;;;;3.97;2.83;;;;;;;;;;4998160;28;20050;-71
2022/06/01 05:25:41;;;;;;;3.97;3.13;;;;;;;;;;5015873;28;20050;-71
2022/06/01 05:28:07;;;;;;;4.03;3.17;;;;;;;;;;4998426;28;20053;-70
2022/06/01 05:30:34;;;;;;;3.20;2.90;;;;;;;;;;5014879;28;20050;-71
2022/06/01 05:33:01;;;;;;;3.53;2.72;;;;;;;;;;4998473;28;20137;-70
2022/06/01 05:35:27;;;;;;;3.97;3.22;;;;;;;;;;5015596;28;20058;-70
2022/06/01 05:37:54;;;;;;;9.18;2.53;;;;;;;;;;5014229;28;20489;-70
2022/06/01 05:40:21;;;;;;;6.95;2.70;;;;;;;;;;4998098;28;20049;-71
2022/06/01 05:42:47;;;;;;;3.03;2.55;;;;;;;;;;4998135;28;20050;-70
2022/06/01 05:45:14;;;;;;;4.43;2.80;;;;;;;;;;5014344;28;20064;-70
2022/06/01 05:47:41;;;;;;;3.00;2.25;;;;;;;;;;4997964;28;20061;-70
2022/06/01 05:50:08;;;;;;;3.00;2.70;;;;;;;;;;5015256;28;20057;-71
2022/06/01 05:52:38;;;;;;;6.28;4.00;;;;;;;;;;4997966;28;20107;-70
2022/06/01 05:55:10;;;;;;;3.00;2.70;;;;;;;;;;5014265;28;20053;-70
2022/06/01 05:57:36;;;;;;;5.05;2.85;;;;;;;;;;4998208;28;20057;-70
2022/06/01 06:00:10;;;;;;;2.95;2.60;;;;;;;;;;5005397;28;20050;-70
2022/06/01 06:02:38;;;;;;;3.38;2.30;;;;;;;;;;4994717;28;20138;-69
2022/06/01 06:06:11;;;;;;;5.13;2.72;;;;;;;;;;4978181;28;20046;-69
2022/06/01 06:07:51;;;;;;;4.25;2.75;;;;;;;;;;4991977;28;20058;-67
2022/06/01 06:10:18;;;;;;;4.68;2.88;;;;;;;;;;4993463;28;20457;-68
2022/06/01 06:12:45;;;;;;;3.05;2.53;;;;;;;;;;4993062;28;20112;-68
2022/06/01 06:15:12;;;;;;;3.17;2.20;;;;;;;;;;5012118;28;20053;-67
2022/06/01 06:17:38;;;;;;;3.20;2.70;;;;;;;;;;5012631;28;20054;-66
2022/06/01 06:20:06;;;;;;;2.90;2.60;;;;;;;;;;5012591;28;20042;-68
2022/06/01 06:22:32;;;;;;;4.30;2.40;;;;;;;;;;4980862;28;20473;-67
2022/06/01 06:24:59;;;;;;;3.78;2.55;;;;;;;;;;5012381;28;20061;-68
2022/06/01 06:27:27;;;;;;;4.90;2.70;;;;;;;;;;5011122;28;20575;-68
2022/06/01 06:29:54;;;;;;;5.60;2.53;;;;;;;;;;5012755;28;20041;-68
2022/06/01 06:32:21;;;;;;;5.95;2.30;;;;;;;;;;4994597;28;20054;-67
2022/06/01 06:34:48;;;;;;;5.40;2.20;;;;;;;;;;5010218;28;20058;-67
2022/06/01 06:37:14;;;;;;;5.75;2.40;;;;;;;;;;4985520;28;20525;-68
2022/06/01 06:39:41;;;;;;;7.28;2.70;;;;;;;;;;5012519;28;20096;-68
2022/06/01 06:42:08;;;;;;;3.55;2.67;;;;;;;;;;4994805;28;20061;-67
2022/06/01 06:44:38;;;;;;;3.72;2.42;;;;;;;;;;5011082;28;20049;-67
2022/06/01 06:47:04;;;;;;;3.90;2.50;;;;;;;;;;4994280;28;20046;-70
2022/06/01 06:49:31;;;;;;;5.57;2.42;;;;;;;;;;4994251;28;20096;-69
2022/06/01 06:51:58;;;;;;;4.22;2.65;;;;;;;;;;4994792;28;20062;-68
2022/06/01 06:54:27;;;;;;;3.50;2.35;;;;;;;;;;5012109;28;20057;-68
2022/06/01 06:56:53;;;;;;;4.30;2.33;;;;;;;;;;5012096;28;20520;-70
2022/06/01 06:59:20;;;;;;;3.70;2.20;;;;;;;;;;5013368;28;20202;-66
2022/06/01 07:01:47;;;;;;;2.95;2.45;;;;;;;;;;4996480;28;20560;-66
2022/06/01 07:04:13;;;;;;;4.72;2.92;;;;;;;;;;5013658;28;20049;-65
2022/06/01 07:06:40;;;;;;;3.22;2.10;;;;;;;;;;5005268;28;20069;-66
2022/06/01 07:09:07;;;;;;;5.40;2.30;;;;;;;;;;4970794;28;20429;-75
2022/06/01 07:11:33;;;;;;;5.28;2.35;;;;;;;;;;5004778;28;20484;-71
2022/06/01 07:14:00;;;;;;;3.80;2.17;;;;;;;;;;5000812;28;20576;-73
2022/06/01 07:16:30;;;;;;;3.65;2.33;;;;;;;;;;5000074;28;20050;-73
2022/06/01 07:19:01;;;;;;;4.43;2.30;;;;;;;;;;4982719;28;20101;-71
2022/06/01 07:21:28;;;;;;;4.30;1.92;;;;;;;;;;4977450;28;20417;-73
2022/06/01 07:23:58;;;;;;;4.40;2.28;;;;;;;;;;4978353;28;20082;-66
2022/06/01 07:26:30;;;;;;;3.65;1.63;;;;;;;;;;5002601;28;20054;-68
2022/06/01 07:28:57;;;;;;;2.75;1.83;;;;;;;;;;4985816;28;20053;-73
2022/06/01 07:31:24;;;;;;;4.00;1.90;;;;;;;;;;5002037;28;20046;-68
2022/06/01 07:33:51;;;;;;;3.30;1.60;;;;;;;;;;4992192;28;20559;-68
2022/06/01 07:36:18;;;;;;;8.18;2.28;;;;;;;;;;4981071;28;20050;-67
2022/06/01 07:44:19;;;;;;;2.85;1.50;;;;;;;;;;5000193;28;20053;-67
2022/06/01 07:46:46;;;;;;;5.47;2.50;;;;;;;;;;4985223;28;20501;-68
2022/06/01 07:49:14;;;;;;;3.15;1.58;;;;;;;;;;4991977;28;20494;-66
2022/06/01 07:52:01;;;;;;;5.10;2.10;;;;;;;;;;4983887;28;20545;-72
2022/06/01 07:54:27;;;;;;;2.00;1.60;;;;;;;;;;4985277;28;20120;-75
2022/06/01 07:56:54;;;;;;;5.18;1.88;;;;;;;;;;4991857;28;20057;-73
2022/06/01 07:59:20;;;;;;;3.42;1.70;;;;;;;;;;5003039;28;20516;-75
2022/06/01 08:01:47;;;;;;;1.70;1.60;;;;;;;;;;4984578;28;20054;-75
2022/06/01 08:04:16;;;;;;;2.88;1.70;;;;;;;;;;5001328;28;20149;-72
2022/06/01 08:06:43;;;;;;;5.47;2.53;;;;;;;;;;4999761;28;20172;-75
2022/06/01 08:09:24;;;;;;;2.30;1.60;;;;;;;;;;4998435;28;20050;-68
2022/06/01 08:14:36;;;;;;;3.03;1.77;;;;;;;;;;5010247;28;20523;-68
2022/06/01 08:17:03;;;;;;;3.83;1.85;;;;;;;;;;5011164;28;20057;-68
2022/06/01 08:19:30;;;;;;;4.47;1.55;;;;;;;;;;5012785;28;20050;-69
2022/06/01 08:21:57;;;;;;;2.25;1.67;;;;;;;;;;4994773;28;20522;-67
2022/06/01 08:24:23;;;;;;;2.25;1.80;;;;;;;;;;4995076;28;20104;-67
2022/06/01 08:26:51;;;;;;;1.75;1.30;;;;;;;;;;4994832;28;20057;-67
2022/06/01 08:29:17;;;;;;;3.53;1.30;;;;;;;;;;4994843;28;20053;-68
2022/06/01 08:31:44;;;;;;;2.72;1.42;;;;;;;;;;5012184;28;20112;-68
2022/06/01 08:34:15;;;;;;;2.53;1.30;;;;;;;;;;5012105;28;20049;-68
2022/06/01 08:36:42;;;;;;;2.10;1.40;;;;;;;;;;5012220;28;20057;-68
2022/06/01 08:39:09;;;;;;;1.60;1.25;;;;;;;;;;5011215;28;20057;-68
2022/06/01 08:41:37;;;;;;;2.67;1.33;;;;;;;;;;5009529;28;20285;-68
2022/06/01 08:44:25;;;;;;;3.33;1.20;;;;;;;;;;4994662;28;20053;-68
2022/06/01 08:46:52;;;;;;;4.32;1.08;;;;;;;;;;5010624;28;20052;-68
2022/06/01 08:49:25;;;;;;;2.72;1.30;;;;;;;;;;4984634;28;20104;-67
2022/06/01 08:51:52;;;;;;;2.25;1.05;;;;;;;;;;4991394;28;20117;-66
2022/06/01 08:54:20;;;;;;;1.95;0.90;;;;;;;;;;4975558;28;20112;-68
2022/06/01 08:56:52;;;;;;;2.55;1.20;;;;;;;;;;4974433;28;20054;-68
2022/06/01 08:59:31;;;;;;;3.70;1.10;;;;;;;;;;4975548;28;20407;-69
2022/06/01 09:02:22;;;;;;;1.27;1.17;;;;;;;;;;4992801;28;20050;-68
2022/06/01 09:05:07;;;;;;;3.63;1.70;;;;;;;;;;4991544;28;20061;-68
2022/06/01 09:07:52;;;;;;;5.05;1.63;;;;;;;;;;4992307;28;20050;-69
2022/06/01 09:10:53;;;;;;;4.65;2.10;;;;;;;;;;4991340;28;20567;-67
2022/06/01 09:13:23;;;;;;;3.72;1.63;;;;;;;;;;4991471;28;20047;-68
2022/06/01 09:16:02;;;;;;;3.67;1.77;;;;;;;;;;4975350;28;20493;-68
2022/06/01 09:18:37;;;;;;;1.40;1.30;;;;;;;;;;4975367;28;20062;-68
2022/06/01 09:23:49;;;;;;;5.43;1.20;;;;;;;;;;4992297;28;20054;-68
2022/06/01 09:26:26;;;;;;;2.13;1.15;;;;;;;;;;4975022;28;20094;-67
2022/06/01 09:28:55;;;;;;;2.53;1.30;;;;;;;;;;5060213;23;20454;-71
2022/06/01 09:31:40;;;;;;;5.38;2.22;;;;;;;;;;5041956;28;20102;-65
2022/06/01 09:34:39;;;;;;;2.42;1.42;;;;;;;;;;5022572;28;20096;-66
2022/06/01 09:37:21;;;;;;;4.45;1.33;;;;;;;;;;5034789;28;20049;-73
2022/06/01 09:39:56;;;;;;;2.78;1.38;;;;;;;;;;5042238;28;20037;-71
2022/06/01 09:42:27;;;;;;;1.67;1.00;;;;;;;;;;5038635;28;20045;-73
2022/06/01 09:44:57;;;;;;;3.97;1.50;;;;;;;;;;5037094;28;20454;-72
2022/06/01 09:47:33;;;;;;;2.53;1.15;;;;;;;;;;5022090;28;20511;-73
2022/06/01 09:50:00;;;;;;;2.50;1.30;;;;;;;;;;5036917;28;20059;-72
2022/06/01 09:52:34;;;;;;;2.67;1.52;;;;;;;;;;5037436;28;20049;-75
2022/06/01 09:55:19;;;;;;;1.63;1.30;;;;;;;;;;5039981;28;20053;-76
2022/06/01 09:58:01;;;;;;;2.42;1.20;;;;;;;;;;5038326;28;20053;-73
2022/06/01 10:06:28;;;;;;;3.55;1.30;;;;;;;;;;5036897;28;20065;-70
2022/06/01 10:08:59;;;;;;;2.60;1.08;;;;;;;;;;5046640;28;20056;-72
2022/06/01 10:11:32;;;;;;;1.75;1.00;;;;;;;;;;5043272;28;20060;-69
2022/06/01 10:14:05;;;;;;;1.33;0.90;;;;;;;;;;5038641;28;20045;-68
2022/06/01 10:17:00;;;;;;;3.08;1.10;;;;;;;;;;5041864;28;20049;-69
2022/06/01 10:19:37;;;;;;;3.25;1.30;;;;;;;;;;5042861;28;20052;-66
2022/06/01 10:22:30;;;;;;;2.88;1.10;;;;;;;;;;5024979;28;20044;-70
2022/06/01 10:25:16;;;;;;;1.23;1.10;;;;;;;;;;5042472;28;20048;-69
2022/06/01 10:27:52;;;;;;;2.58;0.90;;;;;;;;;;5040150;28;20525;-68
2022/06/01 10:30:21;;;;;;;1.88;1.45;;;;;;;;;;5037951;28;20045;-70
2022/06/01 10:33:21;;;;;;;2.92;1.10;;;;;;;;;;5042224;28;21018;-68
2022/06/01 10:36:07;;;;;;;2.05;1.33;;;;;;;;;;5029699;28;20053;-69
2022/06/01 10:39:08;;;;;;;3.90;1.02;;;;;;;;;;5041685;28;20049;-68
2022/06/01 10:42:16;;;;;;;2.40;1.15;;;;;;;;;;5041194;28;20083;-67
2022/06/01 10:45:03;;;;;;;1.73;0.90;;;;;;;;;;5037562;28;20546;-70
2022/06/01 10:47:54;;;;;;;2.10;0.70;;;;;;;;;;5041200;28;20049;-70
2022/06/01 10:50:24;;;;;;;0.88;0.80;;;;;;;;;;5037833;28;20045;-69
2022/06/01 10:53:03;;;;;;;2.35;0.80;;;;;;;;;;5036477;28;20060;-70
2022/06/01 10:55:39;;;;;;;2.85;0.90;;;;;;;;;;5039239;28;20045;-69
2022/06/01 10:58:06;;;;;;;2.53;0.85;;;;;;;;;;5037051;28;20566;-69
2022/06/01 11:00:35;;;;;;;1.10;1.00;;;;;;;;;;5037885;28;20046;-70
2022/06/01 11:03:21;;;;;;;4.90;0.88;;;;;;;;;;5037243;28;20056;-71
2022/06/01 11:06:02;;;;;;;2.45;0.90;;;;;;;;;;5041256;28;20041;-77
2022/06/01 11:08:44;;;;;;;1.17;0.93;;;;;;;;;;5008007;28;20046;-72
2022/06/01 11:11:47;;;;;;;1.65;1.00;;;;;;;;;;5037378;28;20048;-72
2022/06/01 11:14:26;;;;;;;1.65;0.90;;;;;;;;;;5037377;28;20048;-72
2022/06/01 11:17:33;;;;;;;1.60;0.70;;;;;;;;;;5053006;28;20057;-77
2022/06/01 11:20:08;;;;;;;1.65;0.88;;;;;;;;;;4992972;28;20053;-74
2022/06/01 11:22:56;;;;;;;2.17;1.00;;;;;;;;;;5038651;28;20053;-74
2022/06/01 11:25:37;;;;;;;1.83;1.10;;;;;;;;;;5041568;28;20057;-75
2022/06/01 11:28:18;;;;;;;1.90;0.75;;;;;;;;;;5038518;28;20519;-75
2022/06/01 11:31:17;;;;;;;1.02;0.88;;;;;;;;;;5040838;28;20041;-73
2022/06/01 11:33:54;;;;;;;2.60;0.82;;;;;;;;;;5039005;28;20053;-73
2022/06/01 11:36:27;;;;;;;1.95;0.85;;;;;;;;;;5021178;28;20053;-78
2022/06/01 11:39:00;;;;;;;2.92;0.80;;;;;;;;;;5039782;28;20153;-70
2022/06/01 11:41:29;;;;;;;0.80;0.80;;;;;;;;;;5023646;28;20042;-73
2022/06/01 11:44:19;;;;;;;1.05;0.60;;;;;;;;;;5026874;28;20410;-73
2022/06/01 11:46:54;;;;;;;1.33;0.80;;;;;;;;;;5037310;28;20474;-74
2022/06/01 11:49:37;;;;;;;3.35;0.95;;;;;;;;;;5027822;28;20056;-72
2022/06/01 11:52:31;;;;;;;1.55;0.55;;;;;;;;;;5037665;28;20054;-67
2022/06/01 11:55:16;;;;;;;1.00;0.60;;;;;;;;;;5042315;28;20053;-67
2022/06/01 11:57:50;;;;;;;0.80;0.70;;;;;;;;;;5039246;28;20520;-67
2022/06/01 12:00:21;;;;;;;2.50;0.90;;;;;;;;;;5037607;28;20500;-66
2022/06/01 12:02:50;;;;;;;0.77;0.70;;;;;;;;;;5039199;28;20044;-66
2022/06/01 12:05:32;;;;;;;3.33;0.88;;;;;;;;;;5036585;28;20053;-67
2022/06/01 12:08:19;;;;;;;1.30;0.70;;;;;;;;;;5053036;28;20060;-68
2022/06/01 12:11:00;;;;;;;2.03;0.80;;;;;;;;;;5041510;28;20083;-68
2022/06/01 12:13:30;;;;;;;2.80;0.73;;;;;;;;;;5040493;28;20462;-71
2022/06/01 12:16:21;;;;;;;1.05;0.90;;;;;;;;;;5040480;28;20096;-70
2022/06/01 12:19:09;;;;;;;3.35;0.77;;;;;;;;;;5040181;28;20049;-72
2022/06/01 12:21:42;;;;;;;3.58;0.90;;;;;;;;;;5036222;28;20049;-67
2022/06/01 12:30:03;;;;;;;1.55;0.70;;;;;;;;;;5036811;28;20565;-67
2022/06/01 12:32:31;;;;;;;0.77;0.77;;;;;;;;;;5039477;28;20049;-67
2022/06/01 12:35:07;;;;;;;0.70;0.68;;;;;;;;;;5035995;28;20053;-66
2022/06/01 12:38:03;;;;;;;1.08;0.88;;;;;;;;;;5045127;28;20053;-66
2022/06/01 12:40:30;;;;;;;1.35;0.90;;;;;;;;;;5036267;28;20057;-66
2022/06/01 12:43:00;;;;;;;1.00;0.85;;;;;;;;;;5039351;28;20053;-68
2022/06/01 12:45:36;;;;;;;1.25;0.90;;;;;;;;;;5039085;28;20053;-67
2022/06/01 12:48:16;;;;;;;4.50;1.52;;;;;;;;;;5040955;28;20044;-67
2022/06/01 12:50:59;;;;;;;1.02;0.90;;;;;;;;;;5020383;28;20045;-67
2022/06/01 12:53:47;;;;;;;3.10;1.20;;;;;;;;;;5037080;28;20049;-66
2022/06/01 12:56:19;;;;;;;5.03;1.00;;;;;;;;;;5037813;28;20052;-66
2022/06/01 12:58:50;;;;;;;2.53;0.70;;;;;;;;;;5039927;28;20045;-67
2022/06/01 13:01:27;;;;;;;1.23;0.80;;;;;;;;;;5035848;28;20053;-66
2022/06/01 13:03:58;;;;;;;;;;;;;;;;;;5023854;28;20045;-67
2022/06/01 13:06:26;;;;;;;2.45;1.00;;;;;;;;;;5042104;28;19927;-66
2022/06/01 13:09:01;;;;;;;1.58;0.82;;;;;;;;;;5022021;28;20052;-68
2022/06/01 13:11:30;;;;;;;3.67;1.02;;;;;;;;;;5036645;28;20049;-66
2022/06/01 13:14:08;;;;;;;1.80;1.08;;;;;;;;;;5039441;28;20136;-67
2022/06/01 13:16:42;;;;;;;2.22;0.98;;;;;;;;;;5055053;28;20072;-66
2022/06/01 13:19:16;;;;;;;1.98;0.93;;;;;;;;;;5041350;28;20053;-66
2022/06/01 13:21:44;;;;;;;2.15;1.17;;;;;;;;;;5036784;28;20053;-67
2022/06/01 13:24:11;;;;;;;7.53;1.50;;;;;;;;;;5041048;28;20052;-67
2022/06/01 13:26:40;;;;;;;0.73;0.73;;;;;;;;;;5019714;28;20049;-67
2022/06/01 13:29:09;;;;;;;4.82;1.23;;;;;;;;;;5019793;28;20045;-67
2022/06/01 13:31:40;;;;;;;2.65;1.20;;;;;;;;;;5037446;28;20084;-67
2022/06/01 13:34:07;;;;;;;1.77;1.05;;;;;;;;;;5022122;28;20049;-71
2022/06/01 13:36:39;;;;;;;0.95;0.75;;;;;;;;;;5042301;28;20045;-72
2022/06/01 13:39:09;;;;;;;2.15;1.27;;;;;;;;;;5038872;28;20111;-72
2022/06/01 13:41:53;;;;;;;2.55;1.05;;;;;;;;;;5038198;28;20450;-74
2022/06/01 13:44:46;;;;;;;2.08;0.98;;;;;;;;;;5031051;28;20045;-70
2022/06/01 13:47:15;;;;;;;1.50;0.90;;;;;;;;;;5042275;28;20047;-71
2022/06/01 13:49:42;;;;;;;2.30;1.00;;;;;;;;;;5039335;28;20612;-72
2022/06/01 13:52:11;;;;;;;1.10;0.90;;;;;;;;;;5044320;28;20053;-70
2022/06/01 13:54:38;;;;;;;5.75;1.20;;;;;;;;;;5023716;28;20057;-73
2022/06/01 13:57:21;;;;;;;2.30;1.20;;;;;;;;;;5040694;28;20102;-74
2022/06/01 14:00:01;;;;;;;2.65;1.30;;;;;;;;;;5039427;28;20423;-77
2022/06/01 14:02:32;;;;;;;3.92;1.02;;;;;;;;;;5045164;28;20461;-76
2022/06/01 14:05:03;;;;;;;2.20;1.20;;;;;;;;;;5040263;28;20052;-71
2022/06/01 14:07:41;;;;;;;3.63;1.00;;;;;;;;;;5044050;28;20053;-70
2022/06/01 14:10:08;;;;;;;1.73;0.95;;;;;;;;;;5040552;28;20049;-72
2022/06/01 14:12:34;;;;;;;1.05;0.88;;;;;;;;;;5040060;28;20099;-71
2022/06/01 14:15:01;;;;;;;1.92;1.20;;;;;;;;;;5039544;28;20492;-72
2022/06/01 14:17:28;;;;;;;3.28;0.95;;;;;;;;;;5039974;28;20055;-72
2022/06/01 14:20:02;;;;;;;3.40;1.23;;;;;;;;;;5043212;28;20045;-77
2022/06/01 14:22:29;;;;;;;1.33;1.13;;;;;;;;;;5022268;28;20081;-68
2022/06/01 14:30:26;;;;;;;1.65;1.08;;;;;;;;;;5042246;28;20045;-69
2022/06/01 14:32:55;;;;;;;4.57;1.25;;;;;;;;;;5043864;28;20041;-67
2022/06/01 14:35:23;;;;;;;2.47;1.20;;;;;;;;;;5039826;28;20044;-71
2022/06/01 14:37:50;;;;;;;2.35;1.20;;;;;;;;;;5041990;28;20080;-75
2022/06/01 14:40:16;;;;;;;1.58;1.00;;;;;;;;;;5044119;28;20060;-75
2022/06/01 14:42:43;;;;;;;1.92;1.10;;;;;;;;;;5042239;28;20103;-75
2022/06/01 14:45:10;;;;;;;2.70;1.17;;;;;;;;;;5044017;28;20103;-76
2022/06/01 14:47:37;;;;;;;1.35;0.90;;;;;;;;;;5041981;28;20099;-74
2022/06/01 14:50:04;;;;;;;3.45;1.27;;;;;;;;;;5040577;28;20076;-73
2022/06/01 14:52:31;;;;;;;1.38;1.02;;;;;;;;;;5041943;28;20049;-76
2022/06/01 14:55:00;;;;;;;3.13;1.00;;;;;;;;;;5037872;28;20583;-76
2022/06/01 14:57:27;;;;;;;4.72;1.52;;;;;;;;;;5030469;28;20141;-76
2022/06/01 14:59:53;;;;;;;4.60;1.15;;;;;;;;;;5047032;28;20059;-75
2022/06/01 15:02:21;;;;;;;1.27;1.00;;;;;;;;;;5030068;28;20443;-79
2022/06/01 15:04:51;;;;;;;3.17;1.05;;;;;;;;;;5040189;28;20102;-74
2022/06/01 15:07:18;;;;;;;1.75;0.90;;;;;;;;;;5041016;28;20469;-76
2022/06/01 15:09:44;;;;;;;4.45;1.20;;;;;;;;;;5042284;28;20069;-71
2022/06/01 15:12:11;;;;;;;3.38;1.20;;;;;;;;;;5041505;28;20045;-68
2022/06/01 15:14:38;;;;;;;4.38;1.52;;;;;;;;;;5038396;28;20050;-69
2022/06/01 15:17:07;;;;;;;1.40;1.20;;;;;;;;;;5041691;28;20352;-67
2022/06/01 15:19:39;;;;;;;4.00;1.10;;;;;;;;;;5037528;28;20071;-69
2022/06/01 15:22:05;;;;;;;1.33;0.90;;;;;;;;;;5040709;28;20091;-70
2022/06/01 15:24:32;;;;;;;1.95;1.52;;;;;;;;;;5041848;28;20063;-71
2022/06/01 15:26:58;;;;;;;2.55;1.42;;;;;;;;;;5041441;28;20045;-69
2022/06/01 15:40:29;;;;;;;1.13;0.95;;;;;;;;;;5041772;28;20048;-76
2022/06/01 15:42:56;;;;;;;3.85;1.10;;;;;;;;;;5038772;28;20049;-69
2022/06/01 15:45:23;;;;;;;2.22;1.00;;;;;;;;;;5039709;28;20496;-76
2022/06/01 15:47:59;;;;;;;1.52;1.08;;;;;;;;;;5040190;28;20052;-76
2022/06/01 15:50:26;;;;;;;4.50;0.90;;;;;;;;;;5037902;28;20053;-79
2022/06/01 15:52:53;;;;;;;1.77;1.10;;;;;;;;;;5044995;28;20060;-73
2022/06/01 15:55:27;;;;;;;3.65;1.05;;;;;;;;;;5038087;28;20535;-76
2022/06/01 15:57:53;;;;;;;1.10;1.00;;;;;;;;;;5039294;28;20520;-79